Time;durP1;ratioP1;P1;durP2;ratioP2;P2;SDS_P1;SDS_P2;PMS_P1;PMS_P2;Temp;Humidity;BMP_temperature;BMP_pressure;BME280_temperature;BME280_humidity;BME280_pressure;Samples;Min_cycle;Max_cycle;Signal;HPM_P1;HPM_P2
2023/03/08 00:00:14;;;;;;;6.57;5.07;;;7.10;93.20;;;;;;5057252;28;20206;-64
2023/03/08 00:02:40;;;;;;;9.30;5.30;;;7.20;93.10;;;;;;5055866;28;20625;-65
2023/03/08 00:05:08;;;;;;;7.37;5.27;;;7.30;93.00;;;;;;5055076;28;20222;-64
2023/03/08 00:07:35;;;;;;;9.40;5.37;;;7.40;93.00;;;;;;5054768;28;20202;-64
2023/03/08 00:10:04;;;;;;;8.83;5.67;;;7.40;92.90;;;;;;5054683;28;20201;-64
2023/03/08 00:12:31;;;;;;;7.60;5.37;;;7.40;92.90;;;;;;5053949;28;20698;-64
2023/03/08 00:14:57;;;;;;;7.13;5.20;;;7.40;92.80;;;;;;5053868;28;20643;-63
2023/03/08 00:17:25;;;;;;;8.20;5.33;;;7.40;93.00;;;;;;5054264;28;20689;-64
2023/03/08 00:19:51;;;;;;;7.00;5.07;;;7.40;92.90;;;;;;5055593;28;20214;-65
2023/03/08 00:22:18;;;;;;;8.43;5.60;;;7.40;93.00;;;;;;5055417;28;20216;-65
2023/03/08 00:24:45;;;;;;;8.07;5.23;;;7.40;93.10;;;;;;5056070;28;20221;-63
2023/03/08 00:27:13;;;;;;;7.70;5.60;;;7.40;93.00;;;;;;5055164;28;20707;-64
2023/03/08 00:29:40;;;;;;;8.93;5.57;;;7.50;93.00;;;;;;5054450;28;20212;-64
2023/03/08 00:32:07;;;;;;;9.90;5.70;;;7.50;93.00;;;;;;5054125;28;20289;-64
2023/03/08 00:34:33;;;;;;;6.23;4.97;;;7.50;93.10;;;;;;5053607;28;20229;-64
2023/03/08 00:37:00;;;;;;;7.90;5.90;;;7.50;93.10;;;;;;5052528;28;20218;-65
2023/03/08 00:39:27;;;;;;;8.23;5.30;;;7.50;93.10;;;;;;5053178;28;20208;-63
2023/03/08 00:41:54;;;;;;;9.47;6.37;;;7.40;93.20;;;;;;5053365;28;20206;-64
2023/03/08 00:44:22;;;;;;;10.60;5.83;;;7.30;93.70;;;;;;5053137;28;20233;-64
2023/03/08 00:46:48;;;;;;;7.87;5.60;;;7.20;93.40;;;;;;5053208;28;20213;-63
2023/03/08 00:49:15;;;;;;;7.27;5.53;;;7.20;93.60;;;;;;5052542;28;20206;-64
2023/03/08 00:51:41;;;;;;;7.80;5.40;;;7.00;93.90;;;;;;5052745;28;20259;-63
2023/03/08 00:54:08;;;;;;;7.47;5.60;;;7.00;94.00;;;;;;5052861;28;20217;-64
2023/03/08 00:56:35;;;;;;;7.93;5.50;;;7.10;94.00;;;;;;5052884;28;20609;-65
2023/03/08 00:59:01;;;;;;;7.47;5.37;;;7.10;93.90;;;;;;5052638;28;20209;-65
2023/03/08 01:01:30;;;;;;;7.03;5.30;;;7.20;94.00;;;;;;5053022;28;20208;-64
2023/03/08 01:03:56;;;;;;;9.37;5.70;;;7.10;94.00;;;;;;5052997;28;20205;-65
2023/03/08 01:06:23;;;;;;;9.07;6.03;;;7.00;94.20;;;;;;5052714;28;20205;-63
2023/03/08 01:08:50;;;;;;;9.33;5.70;;;6.90;94.20;;;;;;5052544;28;20213;-65
2023/03/08 01:11:18;;;;;;;12.83;6.37;;;6.80;94.40;;;;;;5052633;28;20216;-64
2023/03/08 01:13:45;;;;;;;8.00;5.50;;;6.80;94.50;;;;;;5052921;28;20221;-65
2023/03/08 01:16:17;;;;;;;8.57;5.73;;;6.70;94.70;;;;;;5053086;28;20275;-65
2023/03/08 01:18:45;;;;;;;9.17;5.83;;;6.60;94.80;;;;;;5052516;28;20206;-65
2023/03/08 01:21:11;;;;;;;8.90;6.17;;;6.60;94.80;;;;;;5052958;28;20268;-64
2023/03/08 01:23:38;;;;;;;9.70;6.40;;;6.60;94.80;;;;;;5054040;28;20209;-64
2023/03/08 01:26:08;;;;;;;7.87;5.80;;;6.60;94.90;;;;;;5054676;28;20229;-64
2023/03/08 01:28:35;;;;;;;8.20;5.97;;;6.60;95.00;;;;;;5056825;28;20244;-64
2023/03/08 01:31:03;;;;;;;10.00;6.47;;;6.60;95.20;;;;;;5058871;28;20213;-64
2023/03/08 01:33:30;;;;;;;8.43;6.60;;;6.50;95.20;;;;;;5057890;28;20214;-64
2023/03/08 01:35:58;;;;;;;9.40;6.40;;;6.50;95.20;;;;;;5057549;28;20286;-65
2023/03/08 01:38:25;;;;;;;7.90;5.93;;;6.50;95.40;;;;;;5055681;28;20229;-63
2023/03/08 01:40:56;;;;;;;8.80;6.40;;;6.30;95.50;;;;;;5055217;28;20220;-63
2023/03/08 01:43:24;;;;;;;8.67;5.90;;;6.20;95.70;;;;;;5055138;28;20236;-64
2023/03/08 01:46:14;;;;;;;10.23;5.97;;;6.10;95.80;;;;;;5054705;28;20228;-62
2023/03/08 01:48:45;;;;;;;14.63;7.00;;;6.00;96.10;;;;;;5053728;28;20233;-64
2023/03/08 01:51:16;;;;;;;10.20;6.60;;;5.90;96.20;;;;;;5052489;28;20213;-63
2023/03/08 01:53:44;;;;;;;10.30;6.50;;;5.90;96.50;;;;;;5052690;28;20205;-64
2023/03/08 01:56:13;;;;;;;8.77;6.37;;;5.80;96.70;;;;;;5052036;28;20233;-64
2023/03/08 01:58:41;;;;;;;11.37;6.67;;;5.80;96.70;;;;;;5052257;28;20596;-65
2023/03/08 02:01:08;;;;;;;10.00;6.57;;;5.80;96.70;;;;;;5052467;28;20207;-65
2023/03/08 02:03:34;;;;;;;9.67;6.83;;;5.80;96.70;;;;;;5053785;28;20267;-63
2023/03/08 02:06:02;;;;;;;9.53;6.37;;;5.70;96.70;;;;;;5052735;28;20244;-64
2023/03/08 02:08:31;;;;;;;8.63;6.30;;;5.70;97.00;;;;;;5051898;28;20208;-64
2023/03/08 02:10:58;;;;;;;10.10;6.87;;;5.70;96.90;;;;;;5051941;28;20632;-63
2023/03/08 02:13:26;;;;;;;10.87;6.40;;;5.70;97.00;;;;;;5052324;28;20206;-66
2023/03/08 02:15:55;;;;;;;11.87;6.80;;;5.70;97.00;;;;;;5051724;28;20225;-64
2023/03/08 02:18:22;;;;;;;11.67;6.97;;;5.80;97.00;;;;;;5052123;28;20241;-63
2023/03/08 02:20:49;;;;;;;10.80;5.83;;;5.80;97.00;;;;;;5052156;28;20206;-64
2023/03/08 02:23:19;;;;;;;8.43;6.40;;;5.90;96.90;;;;;;5051882;28;20209;-64
2023/03/08 02:25:51;;;;;;;9.27;6.40;;;6.00;96.80;;;;;;5051541;28;20317;-63
2023/03/08 02:28:19;;;;;;;9.17;6.77;;;6.00;96.80;;;;;;5051794;28;20705;-64
2023/03/08 02:30:46;;;;;;;11.53;6.70;;;6.00;96.70;;;;;;5055463;28;20625;-65
2023/03/08 02:33:12;;;;;;;8.07;6.10;;;6.00;96.80;;;;;;5055507;28;20209;-64
2023/03/08 02:35:41;;;;;;;9.00;6.33;;;5.90;96.70;;;;;;5055324;28;20287;-64
2023/03/08 02:38:08;;;;;;;9.43;6.33;;;5.90;96.80;;;;;;5055529;28;20271;-64
2023/03/08 02:40:36;;;;;;;9.33;6.27;;;5.80;96.70;;;;;;5055463;28;20263;-64
2023/03/08 02:43:03;;;;;;;13.20;6.30;;;5.70;96.80;;;;;;5055233;28;20216;-63
2023/03/08 02:45:30;;;;;;;8.87;6.27;;;5.70;96.90;;;;;;5055296;28;20285;-63
2023/03/08 02:47:56;;;;;;;9.27;6.53;;;5.50;97.20;;;;;;5055361;28;20205;-64
2023/03/08 02:50:23;;;;;;;12.23;6.63;;;5.50;97.30;;;;;;5055359;28;20210;-65
2023/03/08 02:52:50;;;;;;;11.43;6.53;;;5.40;97.40;;;;;;5055191;28;20263;-64
2023/03/08 02:55:16;;;;;;;8.93;6.03;;;5.40;97.50;;;;;;5055344;28;20642;-60
2023/03/08 02:57:44;;;;;;;10.43;6.53;;;5.50;97.40;;;;;;5054638;28;20205;-61
2023/03/08 03:00:12;;;;;;;10.17;6.03;;;5.60;97.30;;;;;;5055016;28;20209;-61
2023/03/08 03:02:38;;;;;;;8.27;5.80;;;5.70;97.20;;;;;;5055156;28;20216;-60
2023/03/08 03:05:09;;;;;;;8.60;5.63;;;5.70;97.20;;;;;;5054765;28;20225;-60
2023/03/08 03:07:36;;;;;;;9.20;6.30;;;5.70;97.10;;;;;;5054489;28;20305;-60
2023/03/08 03:10:04;;;;;;;10.63;6.43;;;5.80;97.00;;;;;;5054635;28;20248;-60
2023/03/08 03:12:31;;;;;;;9.83;6.20;;;5.90;97.00;;;;;;5055168;28;20543;-61
2023/03/08 03:15:00;;;;;;;9.70;5.93;;;5.90;96.90;;;;;;5054391;28;20230;-61
2023/03/08 03:17:27;;;;;;;9.67;6.53;;;6.00;96.80;;;;;;5054562;28;20218;-60
2023/03/08 03:19:53;;;;;;;9.17;6.03;;;6.10;96.80;;;;;;5054467;28;20213;-61
2023/03/08 03:22:20;;;;;;;9.30;6.50;;;6.10;96.90;;;;;;5054450;28;20288;-61
2023/03/08 03:24:49;;;;;;;11.40;6.50;;;6.10;96.90;;;;;;5054363;28;20229;-60
2023/03/08 03:27:16;;;;;;;10.47;6.33;;;6.20;96.80;;;;;;5054006;28;20256;-63
2023/03/08 03:29:42;;;;;;;13.13;7.17;;;6.10;96.70;;;;;;5054737;28;20213;-61
2023/03/08 03:32:10;;;;;;;10.47;6.93;;;6.20;96.90;;;;;;5054680;28;20217;-60
2023/03/08 03:34:37;;;;;;;9.27;5.57;;;6.20;96.80;;;;;;5054344;28;20238;-61
2023/03/08 03:37:04;;;;;;;9.77;6.00;;;6.30;96.70;;;;;;5054318;28;20213;-60
2023/03/08 03:39:33;;;;;;;9.60;6.73;;;6.40;96.50;;;;;;5053685;28;20210;-61
2023/03/08 03:42:00;;;;;;;10.27;6.60;;;6.40;96.40;;;;;;5054155;28;20680;-62
2023/03/08 03:44:29;;;;;;;9.90;6.40;;;6.40;96.40;;;;;;5054154;28;20226;-61
2023/03/08 03:46:56;;;;;;;8.90;5.60;;;6.40;96.30;;;;;;5053977;28;20292;-61
2023/03/08 03:49:24;;;;;;;10.63;6.90;;;6.50;96.30;;;;;;5053678;28;20296;-61
2023/03/08 03:51:51;;;;;;;9.63;6.73;;;6.50;96.20;;;;;;5053624;28;20212;-62
2023/03/08 03:54:18;;;;;;;13.80;8.10;;;6.50;96.20;;;;;;5053541;28;20237;-60
2023/03/08 03:56:44;;;;;;;9.57;6.10;;;6.50;96.30;;;;;;5053675;28;20596;-61
2023/03/08 03:59:11;;;;;;;12.80;7.47;;;6.50;96.20;;;;;;5053608;28;20206;-61
2023/03/08 04:01:38;;;;;;;7.93;5.77;;;6.40;96.10;;;;;;5053668;28;20213;-62
2023/03/08 04:04:05;;;;;;;11.20;6.27;;;6.40;96.20;;;;;;5054002;28;20209;-60
2023/03/08 04:06:34;;;;;;;10.03;6.60;;;6.30;96.20;;;;;;5053363;28;20201;-61
2023/03/08 04:09:02;;;;;;;9.93;5.83;;;6.20;96.40;;;;;;5053082;28;20670;-62
2023/03/08 04:11:33;;;;;;;8.50;5.63;;;6.10;96.60;;;;;;5053620;28;20621;-61
2023/03/08 04:14:00;;;;;;;7.87;5.67;;;6.00;96.60;;;;;;5053537;28;20206;-61
2023/03/08 04:16:28;;;;;;;8.77;5.70;;;5.90;96.80;;;;;;5053244;28;20229;-60
2023/03/08 04:18:57;;;;;;;8.17;5.40;;;5.70;96.90;;;;;;5053098;28;20288;-61
2023/03/08 04:21:23;;;;;;;10.37;6.43;;;5.60;97.20;;;;;;5053721;28;20717;-61
2023/03/08 04:23:53;;;;;;;10.13;6.17;;;5.60;97.20;;;;;;5053314;28;20283;-60
2023/03/08 04:26:20;;;;;;;9.97;6.50;;;5.70;97.40;;;;;;5053205;28;20581;-60
2023/03/08 04:28:47;;;;;;;8.70;6.03;;;5.80;97.10;;;;;;5052797;28;20205;-62
2023/03/08 04:31:15;;;;;;;10.30;5.70;;;5.90;97.10;;;;;;5053114;28;20255;-60
2023/03/08 04:33:41;;;;;;;10.27;6.07;;;5.90;97.10;;;;;;5052835;28;20740;-61
2023/03/08 04:36:09;;;;;;;10.90;5.90;;;5.90;97.30;;;;;;5052768;28;20692;-61
2023/03/08 04:38:36;;;;;;;9.93;5.83;;;5.90;97.30;;;;;;5052907;28;20308;-62
2023/03/08 04:41:09;;;;;;;9.70;5.87;;;5.90;97.40;;;;;;5052921;28;20220;-60
2023/03/08 04:43:36;;;;;;;9.17;6.20;;;5.80;97.60;;;;;;5052851;28;20214;-61
2023/03/08 04:46:04;;;;;;;8.43;6.33;;;6.00;97.50;;;;;;5052643;28;20233;-61
2023/03/08 04:48:31;;;;;;;9.47;6.13;;;6.10;97.30;;;;;;5052387;28;20259;-61
2023/03/08 04:50:59;;;;;;;10.27;6.27;;;6.20;96.90;;;;;;5052383;28;20214;-61
2023/03/08 04:53:26;;;;;;;9.10;6.30;;;6.30;97.00;;;;;;5052769;28;20282;-61
2023/03/08 04:55:54;;;;;;;9.37;6.33;;;6.30;97.00;;;;;;5052328;28;20241;-61
2023/03/08 04:58:22;;;;;;;11.87;6.97;;;6.30;97.00;;;;;;5052371;28;20696;-61
2023/03/08 05:00:49;;;;;;;10.10;6.90;;;6.40;97.00;;;;;;5052416;28;20209;-62
2023/03/08 05:03:16;;;;;;;10.70;7.00;;;6.50;96.80;;;;;;5052716;28;20208;-62
2023/03/08 05:05:46;;;;;;;9.23;6.20;;;6.60;96.80;;;;;;5052251;28;20574;-61
2023/03/08 05:08:13;;;;;;;10.73;7.57;;;6.60;96.70;;;;;;5052523;28;20238;-61
2023/03/08 05:10:40;;;;;;;14.67;8.93;;;6.70;96.70;;;;;;5053022;28;20212;-63
2023/03/08 05:13:07;;;;;;;12.63;6.33;;;6.80;96.60;;;;;;5052721;28;20688;-61
2023/03/08 05:15:35;;;;;;;9.67;6.47;;;6.90;96.50;;;;;;5052665;28;20601;-62
2023/03/08 05:18:01;;;;;;;9.27;6.73;;;6.90;96.40;;;;;;5052806;28;20209;-60
2023/03/08 05:20:28;;;;;;;11.30;7.07;;;7.00;96.30;;;;;;5053022;28;20213;-62
2023/03/08 05:22:55;;;;;;;9.83;6.63;;;7.00;96.10;;;;;;5052765;28;20205;-61
2023/03/08 05:25:22;;;;;;;14.17;7.17;;;7.00;96.10;;;;;;5052292;28;20251;-61
2023/03/08 05:27:48;;;;;;;9.47;6.30;;;7.00;96.20;;;;;;5052608;28;20206;-62
2023/03/08 05:30:15;;;;;;;11.30;8.37;;;7.10;96.20;;;;;;5052855;28;20249;-62
2023/03/08 05:32:43;;;;;;;12.67;7.30;;;7.10;96.20;;;;;;5052843;28;20212;-61
2023/03/08 05:35:10;;;;;;;9.37;6.60;;;7.10;96.10;;;;;;5052742;28;20226;-62
2023/03/08 05:37:37;;;;;;;13.50;9.07;;;7.00;96.10;;;;;;5052250;28;20205;-61
2023/03/08 05:40:05;;;;;;;10.43;6.67;;;7.00;96.10;;;;;;5052625;28;20247;-63
2023/03/08 05:42:32;;;;;;;9.70;6.80;;;7.00;96.00;;;;;;5052148;28;20232;-62
2023/03/08 05:44:59;;;;;;;9.93;6.93;;;7.10;96.00;;;;;;5052223;28;20225;-60
2023/03/08 05:47:25;;;;;;;12.03;7.30;;;7.10;96.00;;;;;;5051991;28;20591;-63
2023/03/08 05:49:53;;;;;;;10.70;7.17;;;7.10;96.00;;;;;;5052030;28;20213;-62
2023/03/08 05:52:20;;;;;;;14.00;7.10;;;7.20;95.90;;;;;;5051890;28;20209;-62
2023/03/08 05:54:47;;;;;;;13.20;7.60;;;7.30;96.00;;;;;;5051822;28;20531;-62
2023/03/08 05:57:13;;;;;;;9.60;6.90;;;7.20;95.90;;;;;;5051531;28;20225;-61
2023/03/08 05:59:40;;;;;;;10.30;6.97;;;7.30;96.00;;;;;;5051673;28;20206;-62
2023/03/08 06:02:07;;;;;;;9.57;6.33;;;7.30;96.00;;;;;;5051601;28;20209;-61
2023/03/08 06:04:33;;;;;;;10.13;6.70;;;7.40;96.00;;;;;;5054294;28;20236;-62
2023/03/08 06:07:01;;;;;;;9.73;7.00;;;7.50;95.90;;;;;;5055853;28;20254;-60
2023/03/08 06:09:28;;;;;;;10.60;6.33;;;7.50;95.90;;;;;;5055248;28;20209;-62
2023/03/08 06:11:55;;;;;;;12.47;7.07;;;7.50;95.80;;;;;;5055808;28;20209;-60
2023/03/08 06:14:22;;;;;;;11.10;7.63;;;7.60;95.80;;;;;;5056187;28;20312;-62
2023/03/08 06:16:49;;;;;;;11.83;6.87;;;7.60;95.70;;;;;;5056373;28;20237;-62
2023/03/08 06:19:16;;;;;;;10.57;6.73;;;7.60;95.60;;;;;;5055386;28;20216;-62
2023/03/08 06:21:43;;;;;;;9.63;6.47;;;7.60;95.70;;;;;;5055465;28;20198;-61
2023/03/08 06:24:11;;;;;;;10.03;6.97;;;7.60;95.60;;;;;;5055334;28;20229;-62
2023/03/08 06:26:37;;;;;;;10.33;6.90;;;7.60;95.50;;;;;;5055660;28;20205;-61
2023/03/08 06:29:04;;;;;;;11.00;6.97;;;7.60;95.40;;;;;;5055286;28;20212;-62
2023/03/08 06:31:31;;;;;;;10.47;6.53;;;7.60;95.40;;;;;;5055651;28;20209;-60
2023/03/08 06:33:57;;;;;;;10.13;6.83;;;7.80;95.30;;;;;;5055156;28;20676;-60
2023/03/08 06:36:24;;;;;;;11.27;6.57;;;7.90;95.20;;;;;;5055129;28;20752;-62
2023/03/08 06:38:51;;;;;;;9.80;6.77;;;7.90;95.30;;;;;;5054982;28;20213;-62
2023/03/08 06:41:20;;;;;;;10.80;7.20;;;7.80;95.50;;;;;;5055413;28;20212;-61
2023/03/08 06:43:47;;;;;;;10.97;6.97;;;7.80;95.40;;;;;;5055103;28;20263;-62
2023/03/08 06:46:16;;;;;;;11.97;6.20;;;7.80;95.60;;;;;;5055194;28;20771;-62
2023/03/08 06:48:44;;;;;;;11.00;6.57;;;7.50;95.70;;;;;;5054992;28;20240;-61
2023/03/08 06:51:11;;;;;;;9.53;6.87;;;7.30;96.10;;;;;;5054945;28;20212;-63
2023/03/08 06:53:37;;;;;;;8.57;6.53;;;7.20;96.30;;;;;;5055123;28;20623;-61
2023/03/08 06:56:05;;;;;;;12.00;7.37;;;7.10;96.40;;;;;;5055012;28;20324;-62
2023/03/08 06:58:34;;;;;;;9.93;7.17;;;6.90;96.90;;;;;;5054884;28;20205;-63
2023/03/08 07:01:03;;;;;;;10.00;7.00;;;6.80;97.10;;;;;;5054979;28;20275;-61
2023/03/08 07:03:30;;;;;;;11.87;7.30;;;6.80;97.10;;;;;;5055441;28;20232;-62
2023/03/08 07:05:59;;;;;;;12.13;6.70;;;7.00;97.20;;;;;;5054723;28;20226;-62
2023/03/08 07:08:26;;;;;;;10.33;6.97;;;7.20;97.10;;;;;;5054924;28;20636;-62
2023/03/08 07:10:52;;;;;;;9.90;6.33;;;7.30;96.70;;;;;;5055216;28;20210;-61
2023/03/08 07:13:22;;;;;;;8.73;6.40;;;7.40;96.40;;;;;;5055807;28;20590;-62
2023/03/08 07:15:50;;;;;;;10.97;7.60;;;7.40;96.60;;;;;;5055352;28;20232;-61
2023/03/08 07:18:17;;;;;;;12.73;6.93;;;7.40;96.30;;;;;;5054832;28;20202;-60
2023/03/08 07:20:44;;;;;;;9.47;6.70;;;7.30;96.20;;;;;;5055446;28;20205;-61
2023/03/08 07:23:10;;;;;;;9.43;6.73;;;7.30;96.30;;;;;;5055365;28;20205;-61
2023/03/08 07:25:39;;;;;;;11.07;6.53;;;7.30;96.50;;;;;;5054452;28;20267;-61
2023/03/08 07:28:06;;;;;;;9.97;6.30;;;7.30;96.40;;;;;;5054211;28;20237;-62
2023/03/08 07:30:32;;;;;;;10.80;6.80;;;7.30;96.50;;;;;;5054026;28;20696;-61
2023/03/08 07:33:00;;;;;;;10.20;6.70;;;7.20;96.40;;;;;;5053987;28;20221;-61
2023/03/08 07:35:27;;;;;;;9.87;6.67;;;7.10;96.60;;;;;;5054324;28;20225;-61
2023/03/08 07:37:54;;;;;;;8.70;6.23;;;6.90;97.00;;;;;;5054036;28;20209;-60
2023/03/08 07:40:21;;;;;;;9.47;6.67;;;7.00;97.00;;;;;;5054087;28;20202;-60
2023/03/08 07:42:48;;;;;;;11.97;6.40;;;7.00;97.20;;;;;;5053963;28;20437;-61
2023/03/08 07:45:14;;;;;;;10.97;6.80;;;7.00;97.50;;;;;;5054029;28;20588;-62
2023/03/08 07:47:41;;;;;;;9.30;5.50;;;6.90;97.70;;;;;;5053871;28;20208;-63
2023/03/08 07:50:11;;;;;;;10.43;6.20;;;6.70;98.00;;;;;;5054234;28;20212;-61
2023/03/08 07:52:38;;;;;;;10.80;6.80;;;6.70;98.30;;;;;;5053914;28;20692;-61
2023/03/08 07:55:05;;;;;;;12.63;6.67;;;6.70;98.70;;;;;;5053787;28;20237;-60
2023/03/08 07:57:32;;;;;;;9.90;6.97;;;6.60;98.40;;;;;;5054026;28;20229;-61
2023/03/08 07:59:59;;;;;;;11.33;7.47;;;6.60;98.80;;;;;;5053472;28;20215;-62
2023/03/08 08:02:26;;;;;;;9.73;6.97;;;6.60;98.80;;;;;;5053774;28;20202;-61
2023/03/08 08:04:52;;;;;;;10.80;7.00;;;6.80;98.90;;;;;;5053636;28;20252;-61
2023/03/08 08:07:20;;;;;;;10.53;6.73;;;6.80;99.10;;;;;;5053652;28;20210;-61
2023/03/08 08:09:47;;;;;;;12.87;8.17;;;6.70;99.60;;;;;;5053329;28;20684;-60
2023/03/08 08:12:14;;;;;;;12.37;7.67;;;6.70;99.80;;;;;;5053602;28;20791;-61
2023/03/08 08:14:40;;;;;;;11.63;7.90;;;6.80;99.90;;;;;;5053709;28;20241;-64
2023/03/08 08:17:07;;;;;;;12.23;8.17;;;6.90;99.90;;;;;;5053083;28;20221;-61
2023/03/08 08:19:34;;;;;;;12.93;7.87;;;6.90;99.90;;;;;;5053031;28;20225;-62
2023/03/08 08:22:00;;;;;;;11.13;7.47;;;7.00;99.90;;;;;;5053405;28;20209;-61
2023/03/08 08:24:29;;;;;;;11.97;7.67;;;7.20;99.90;;;;;;5053047;28;20579;-60
2023/03/08 08:26:56;;;;;;;10.30;7.13;;;7.30;99.90;;;;;;5052181;28;20669;-62
2023/03/08 08:29:23;;;;;;;11.10;7.67;;;7.40;99.90;;;;;;5053117;28;20653;-62
2023/03/08 08:31:51;;;;;;;10.97;7.57;;;7.30;99.90;;;;;;5053244;28;20202;-61
2023/03/08 08:34:18;;;;;;;13.40;7.83;;;7.40;99.90;;;;;;5053112;28;20261;-60
2023/03/08 08:36:45;;;;;;;10.77;8.00;;;7.40;99.90;;;;;;5052858;28;20653;-60
2023/03/08 08:39:11;;;;;;;15.13;7.60;;;7.40;99.90;;;;;;5052833;28;20205;-60
2023/03/08 08:41:39;;;;;;;12.90;8.57;;;7.40;99.90;;;;;;5052535;28;20205;-62
2023/03/08 08:44:07;;;;;;;10.63;7.70;;;7.30;99.90;;;;;;5052863;28;20210;-62
2023/03/08 08:46:34;;;;;;;14.40;9.17;;;7.30;99.90;;;;;;5053149;28;20209;-64
2023/03/08 08:49:01;;;;;;;11.30;8.20;;;7.10;99.90;;;;;;5052333;28;20684;-60
2023/03/08 08:51:27;;;;;;;12.53;8.60;;;7.10;99.90;;;;;;5052846;28;20267;-62
2023/03/08 08:53:55;;;;;;;14.03;9.03;;;7.10;99.90;;;;;;5052950;28;20213;-61
2023/03/08 08:56:23;;;;;;;11.70;8.67;;;7.00;99.90;;;;;;5113826;22;20450;-55
2023/03/08 08:58:52;;;;;;;12.83;8.33;;;6.90;99.90;;;;;;5093094;28;20291;-55
2023/03/08 09:01:21;;;;;;;14.17;9.13;;;6.80;99.90;;;;;;5093536;28;20204;-56
2023/03/08 09:03:49;;;;;;;12.53;8.83;;;6.80;99.90;;;;;;5093321;28;20228;-56
2023/03/08 09:06:18;;;;;;;15.27;10.03;;;6.70;99.90;;;;;;5093136;28;20608;-56
2023/03/08 09:08:48;;;;;;;15.30;9.03;;;6.70;99.90;;;;;;5093240;28;20223;-57
2023/03/08 09:11:15;;;;;;;16.57;9.83;;;6.80;99.90;;;;;;5093237;28;20592;-57
2023/03/08 09:13:42;;;;;;;14.80;9.70;;;6.80;99.90;;;;;;5093169;28;20200;-57
2023/03/08 09:16:18;;;;;;;17.07;10.03;;;7.00;99.90;;;;;;5092596;28;20224;-56
2023/03/08 09:18:45;;;;;;;15.50;10.17;;;6.90;99.90;;;;;;5093048;28;20209;-59
2023/03/08 09:21:13;;;;;;;15.93;10.57;;;6.90;99.90;;;;;;5093636;28;20214;-54
2023/03/08 09:23:39;;;;;;;14.83;10.53;;;6.90;99.90;;;;;;5092560;28;20694;-55
2023/03/08 09:26:07;;;;;;;14.87;10.60;;;7.00;99.90;;;;;;5092545;28;20247;-55
2023/03/08 09:28:34;;;;;;;15.43;9.37;;;7.20;99.90;;;;;;5092399;28;20200;-55
2023/03/08 09:31:08;;;;;;;14.03;9.87;;;7.50;99.90;;;;;;5092365;28;20678;-56
2023/03/08 09:33:36;;;;;;;16.90;10.50;;;7.50;99.90;;;;;;5092795;28;20212;-56
2023/03/08 09:36:03;;;;;;;13.40;9.47;;;7.50;99.90;;;;;;5092392;28;20349;-56
2023/03/08 09:38:30;;;;;;;15.70;10.43;;;7.70;99.90;;;;;;5092475;28;20204;-56
2023/03/08 09:41:10;;;;;;;14.83;10.40;;;7.70;99.90;;;;;;5092098;28;20624;-56
2023/03/08 09:43:45;;;;;;;14.47;10.23;;;7.70;99.90;;;;;;5092618;28;20210;-55
2023/03/08 09:46:14;;;;;;;14.40;10.27;;;7.80;99.90;;;;;;5092299;28;20223;-56
2023/03/08 09:48:47;;;;;;;16.37;9.83;;;7.80;99.90;;;;;;5092225;28;20219;-55
2023/03/08 09:51:16;;;;;;;14.33;9.53;;;7.90;99.90;;;;;;5092238;28;20704;-59
2023/03/08 09:53:47;;;;;;;13.37;9.60;;;8.00;99.90;;;;;;5092216;28;20200;-57
2023/03/08 09:56:22;;;;;;;17.10;9.93;;;7.90;99.90;;;;;;5092278;28;20238;-55
2023/03/08 09:58:53;;;;;;;15.87;10.10;;;7.70;99.90;;;;;;5092750;28;20224;-56
2023/03/08 10:01:32;;;;;;;13.53;10.43;;;7.70;99.90;;;;;;5092458;28;20212;-55
2023/03/08 10:04:18;;;;;;;15.70;10.17;;;7.70;99.90;;;;;;5091746;28;20659;-55
2023/03/08 10:06:56;;;;;;;17.90;11.13;;;7.80;99.90;;;;;;5091197;28;20204;-57
2023/03/08 10:09:30;;;;;;;13.67;10.27;;;8.10;99.90;;;;;;5091938;28;20687;-56
2023/03/08 10:12:03;;;;;;;13.67;10.50;;;8.20;99.90;;;;;;5091808;28;20549;-55
2023/03/08 10:14:34;;;;;;;16.07;10.50;;;8.50;99.90;;;;;;5091854;28;20204;-57
2023/03/08 10:17:06;;;;;;;14.13;10.33;;;8.70;99.90;;;;;;5091891;28;20227;-55
2023/03/08 10:19:40;;;;;;;15.17;9.83;;;8.90;99.90;;;;;;5091579;28;20208;-55
2023/03/08 10:22:14;;;;;;;14.47;9.70;;;9.20;99.90;;;;;;5092269;28;20241;-56
2023/03/08 10:24:46;;;;;;;11.67;8.70;;;9.50;99.90;;;;;;5091930;28;20228;-56
2023/03/08 10:27:20;;;;;;;11.70;8.27;;;9.80;99.90;;;;;;5091878;28;20261;-56
2023/03/08 10:29:51;;;;;;;8.87;6.93;;;10.00;99.90;;;;;;5091605;28;20215;-55
2023/03/08 10:32:18;;;;;;;8.40;6.80;;;10.20;99.90;;;;;;5092010;28;20240;-57
2023/03/08 10:34:47;;;;;;;12.43;7.80;;;10.40;99.90;;;;;;5091992;28;20296;-56
2023/03/08 10:37:14;;;;;;;10.50;6.70;;;10.50;99.90;;;;;;5091900;28;20217;-55
2023/03/08 10:39:51;;;;;;;7.57;6.10;;;10.70;99.90;;;;;;5091965;28;20208;-56
2023/03/08 10:42:21;;;;;;;8.90;6.20;;;10.80;99.90;;;;;;5091756;28;20601;-56
2023/03/08 10:44:54;;;;;;;7.73;5.77;;;10.90;99.90;;;;;;5091782;28;20233;-56
2023/03/08 10:47:23;;;;;;;7.57;6.07;;;11.00;99.90;;;;;;5092139;28;20204;-56
2023/03/08 10:50:11;;;;;;;10.53;7.10;;;11.20;99.90;;;;;;5093121;28;20215;-56
2023/03/08 10:52:37;;;;;;;10.27;6.33;;;11.20;99.90;;;;;;5095676;28;20231;-56
2023/03/08 10:55:09;;;;;;;8.87;5.33;;;11.40;99.90;;;;;;5095846;28;20236;-56
2023/03/08 10:57:37;;;;;;;8.80;5.93;;;11.50;99.90;;;;;;5095699;28;20260;-56
2023/03/08 11:00:12;;;;;;;6.72;5.07;;;11.50;99.90;;;;;;5092405;28;20450;-57
2023/03/08 11:02:39;;;;;;;7.90;5.83;;;11.60;99.90;;;;;;5093856;28;20204;-59
2023/03/08 11:05:19;;;;;;;5.43;4.17;;;11.60;99.90;;;;;;5094004;28;20216;-57
2023/03/08 11:07:51;;;;;;;6.17;4.53;;;11.60;99.90;;;;;;5094488;28;20203;-56
2023/03/08 11:10:22;;;;;;;5.60;3.80;;;11.80;99.90;;;;;;5093966;28;20215;-57
2023/03/08 11:12:50;;;;;;;5.93;3.97;;;11.90;99.90;;;;;;5094103;28;20577;-56
2023/03/08 11:15:19;;;;;;;5.43;4.07;;;12.00;99.90;;;;;;5093388;28;20281;-56
2023/03/08 11:17:53;;;;;;;6.37;3.93;;;12.00;99.90;;;;;;5093662;28;20289;-58
2023/03/08 11:20:26;;;;;;;7.17;3.83;;;12.10;99.90;;;;;;5093686;28;20212;-55
2023/03/08 11:23:15;;;;;;;6.90;3.53;;;12.20;99.90;;;;;;5093948;28;20208;-58
2023/03/08 11:25:45;;;;;;;5.37;3.67;;;12.40;99.90;;;;;;5093719;28;20715;-55
2023/03/08 11:28:41;;;;;;;4.40;3.30;;;12.60;99.90;;;;;;5093321;28;20569;-62
2023/03/08 11:31:18;;;;;;;4.33;2.90;;;12.80;99.90;;;;;;5093959;28;20215;-59
2023/03/08 11:34:21;;;;;;;4.87;3.00;;;13.00;99.90;;;;;;5093751;28;20574;-58
2023/03/08 11:36:56;;;;;;;3.57;2.70;;;13.20;99.90;;;;;;5089938;28;20216;-57
2023/03/08 11:39:28;;;;;;;2.23;1.97;;;13.30;99.90;;;;;;5093065;28;20208;-58
2023/03/08 11:42:00;;;;;;;1.80;1.37;;;13.30;99.90;;;;;;5093678;28;20201;-59
2023/03/08 11:44:47;;;;;;;2.37;1.57;;;13.30;99.90;;;;;;5093399;28;20679;-58
2023/03/08 11:47:47;;;;;;;2.83;1.40;;;13.20;99.90;;;;;;5093867;28;20195;-59
2023/03/08 11:50:20;;;;;;;3.33;1.63;;;13.10;99.90;;;;;;5092912;28;20667;-58
2023/03/08 11:52:59;;;;;;;2.57;1.83;;;13.10;99.90;;;;;;5092927;28;20377;-57
2023/03/08 11:55:39;;;;;;;1.80;1.10;;;13.10;99.90;;;;;;5092822;28;20241;-58
2023/03/08 11:58:13;;;;;;;1.80;1.23;;;13.20;99.90;;;;;;5093017;28;20232;-58
2023/03/08 12:00:43;;;;;;;2.13;1.00;;;13.30;99.90;;;;;;5092330;28;20223;-57
2023/03/08 12:03:15;;;;;;;2.07;1.10;;;13.30;99.90;;;;;;5092557;28;20212;-58
2023/03/08 12:05:48;;;;;;;3.30;0.70;;;13.30;99.90;;;;;;5092758;28;20227;-59
2023/03/08 12:08:22;;;;;;;3.73;0.80;;;13.40;99.90;;;;;;5093237;28;20292;-58
2023/03/08 12:10:55;;;;;;;0.83;0.80;;;13.30;99.90;;;;;;5093058;28;20551;-58
2023/03/08 12:13:28;;;;;;;1.73;0.80;;;13.40;99.90;;;;;;5093270;28;20204;-60
2023/03/08 12:16:01;;;;;;;3.17;2.50;;;13.50;99.90;;;;;;5092820;28;20325;-61
2023/03/08 12:18:35;;;;;;;1.60;1.00;;;13.50;99.90;;;;;;5092748;28;20231;-59
2023/03/08 12:21:13;;;;;;;3.70;1.43;;;13.70;99.90;;;;;;5093465;28;20208;-60
2023/03/08 12:23:49;;;;;;;4.10;2.90;;;13.90;99.90;;;;;;5093367;28;20208;-58
2023/03/08 12:26:20;;;;;;;3.10;1.13;;;13.90;99.90;;;;;;5093380;28;20711;-65
2023/03/08 12:28:52;;;;;;;1.20;0.77;;;14.00;99.90;;;;;;5094974;28;20200;-56
2023/03/08 12:31:30;;;;;;;2.23;0.73;;;14.10;99.90;;;;;;5096237;28;20239;-56
2023/03/08 12:33:58;;;;;;;2.40;0.83;;;14.10;99.90;;;;;;5096103;28;20211;-56
2023/03/08 12:36:37;;;;;;;2.67;1.13;;;14.20;99.90;;;;;;5096157;28;20353;-55
2023/03/08 12:39:22;;;;;;;2.10;0.70;;;14.40;99.90;;;;;;5094779;28;20227;-58
2023/03/08 12:41:58;;;;;;;3.07;0.70;;;14.40;99.90;;;;;;5092898;28;20590;-54
2023/03/08 12:44:26;;;;;;;2.33;0.90;;;14.40;99.90;;;;;;5094503;28;20215;-56
2023/03/08 12:46:56;;;;;;;1.13;0.97;;;14.50;99.90;;;;;;5094405;28;20204;-55
2023/03/08 12:49:30;;;;;;;3.50;1.30;;;14.60;99.90;;;;;;5094185;28;20200;-55
2023/03/08 12:52:02;;;;;;;1.00;0.70;;;14.60;99.90;;;;;;5094598;28;20229;-56
2023/03/08 12:54:33;;;;;;;6.43;1.10;;;14.60;99.90;;;;;;5094109;28;20208;-54
2023/03/08 12:57:02;;;;;;;1.50;1.00;;;14.60;99.90;;;;;;5094222;28;20232;-57
2023/03/08 12:59:38;;;;;;;1.23;0.80;;;14.60;99.90;;;;;;5093840;28;20692;-56